createdAt,value
2023-05-05T00:00:11.996Z,28.68
2023-05-05T00:01:11.151Z,28.67
2023-05-05T00:02:11.198Z,28.68
2023-05-05T00:03:11.247Z,28.70
2023-05-05T00:04:11.207Z,28.70
2023-05-05T00:05:11.167Z,28.67
2023-05-05T00:06:11.167Z,28.68
2023-05-05T00:07:11.527Z,28.73
2023-05-05T00:08:11.146Z,28.68
2023-05-05T00:09:11.163Z,28.75
2023-05-05T00:10:11.186Z,28.71
2023-05-05T00:11:11.156Z,28.72
2023-05-05T00:12:11.529Z,28.74
2023-05-05T00:13:11.225Z,28.71
2023-05-05T00:14:11.185Z,28.74
2023-05-05T00:15:11.176Z,28.74
2023-05-05T00:16:11.181Z,28.70
2023-05-05T00:17:11.234Z,28.75
2023-05-05T00:18:11.147Z,28.75
2023-05-05T00:19:11.184Z,28.75
2023-05-05T00:20:11.204Z,28.76
2023-05-05T00:21:11.239Z,28.76
2023-05-05T00:22:11.144Z,28.75
2023-05-05T00:23:11.169Z,28.72
2023-05-05T00:24:11.177Z,28.78
2023-05-05T00:25:11.161Z,28.74
2023-05-05T00:26:11.181Z,28.76
2023-05-05T00:27:11.143Z,28.75
2023-05-05T00:28:11.151Z,28.76
2023-05-05T00:29:11.166Z,28.76
2023-05-05T00:30:11.165Z,28.79
2023-05-05T00:31:11.197Z,28.76
2023-05-05T00:32:11.180Z,28.75
2023-05-05T00:33:11.171Z,28.75
2023-05-05T00:34:11.152Z,28.80
2023-05-05T00:35:11.163Z,28.75
2023-05-05T00:36:11.160Z,28.76
2023-05-05T00:37:11.201Z,28.80
2023-05-05T00:38:11.161Z,28.80
2023-05-05T00:39:11.173Z,28.81
2023-05-05T00:40:11.177Z,28.73
2023-05-05T00:41:11.185Z,28.80
2023-05-05T00:42:11.579Z,28.78
2023-05-05T00:43:11.175Z,28.78
2023-05-05T00:44:11.178Z,28.78
2023-05-05T00:45:11.166Z,28.81
2023-05-05T00:46:11.232Z,28.83
2023-05-05T00:47:11.543Z,28.74
2023-05-05T00:48:11.280Z,28.79
2023-05-05T00:49:11.209Z,28.80
2023-05-05T00:50:11.204Z,28.84
2023-05-05T00:51:11.214Z,28.79
2023-05-05T00:52:11.198Z,28.81
2023-05-05T00:53:11.199Z,28.83
2023-05-05T00:54:11.201Z,28.81
2023-05-05T00:55:11.217Z,28.81
2023-05-05T00:56:11.218Z,28.80
2023-05-05T00:57:11.231Z,28.80
2023-05-05T00:58:11.260Z,28.79
2023-05-05T00:59:11.205Z,28.84
2023-05-05T01:00:11.212Z,28.85
2023-05-05T01:01:11.283Z,28.85
2023-05-05T01:02:11.252Z,28.83
2023-05-05T01:03:11.359Z,28.83
2023-05-05T01:04:11.240Z,28.81
2023-05-05T01:05:11.270Z,28.85
2023-05-05T01:06:11.285Z,28.83
2023-05-05T01:07:11.286Z,28.87
2023-05-05T01:08:11.272Z,28.84
2023-05-05T01:09:11.281Z,28.87
2023-05-05T01:10:19.814Z,28.81
2023-05-05T01:11:12.294Z,28.86
2023-05-05T01:12:11.343Z,28.87
2023-05-05T01:13:11.355Z,28.85
2023-05-05T01:14:11.290Z,28.85
2023-05-05T01:15:11.251Z,28.85
2023-05-05T01:16:11.304Z,28.87
2023-05-05T01:17:11.262Z,28.89
2023-05-05T01:18:11.237Z,28.87
2023-05-05T01:19:11.218Z,28.81
2023-05-05T01:20:11.288Z,28.84
2023-05-05T01:21:11.265Z,28.85
2023-05-05T01:22:11.230Z,28.84
2023-05-05T01:23:11.202Z,28.88
2023-05-05T01:24:11.227Z,28.87
2023-05-05T01:25:11.229Z,28.88
2023-05-05T01:26:11.208Z,28.86
2023-05-05T01:27:11.209Z,28.92
2023-05-05T01:28:11.203Z,28.86
2023-05-05T01:29:11.217Z,28.89
2023-05-05T01:30:11.173Z,28.92
2023-05-05T01:31:11.177Z,28.89
2023-05-05T01:32:11.183Z,28.92
2023-05-05T01:33:11.130Z,28.89
2023-05-05T01:34:11.142Z,28.90
2023-05-05T01:35:11.129Z,28.92
2023-05-05T01:36:11.131Z,28.96
2023-05-05T01:37:11.122Z,28.93
2023-05-05T01:38:11.106Z,28.90
2023-05-05T01:39:11.096Z,28.93
2023-05-05T01:40:11.108Z,28.93
2023-05-05T01:41:11.094Z,28.89
2023-05-05T01:42:11.096Z,28.93
2023-05-05T01:43:11.095Z,28.93
2023-05-05T01:44:11.096Z,28.89
2023-05-05T01:45:11.072Z,28.93
2023-05-05T01:46:11.103Z,28.90
2023-05-05T01:47:11.038Z,28.98
2023-05-05T01:48:11.065Z,28.92
2023-05-05T01:49:11.090Z,28.93
2023-05-05T01:50:11.092Z,28.94
2023-05-05T01:51:11.102Z,28.90
2023-05-05T01:52:11.101Z,28.94
2023-05-05T01:53:11.128Z,28.98
2023-05-05T01:54:11.150Z,28.93
2023-05-05T01:55:11.108Z,28.93
2023-05-05T01:56:11.172Z,28.97
2023-05-05T01:57:11.130Z,28.94
2023-05-05T01:58:11.174Z,28.97
2023-05-05T01:59:11.181Z,28.94
2023-05-05T02:00:11.308Z,28.97
2023-05-05T02:01:11.241Z,29.00
2023-05-05T02:02:11.267Z,29.01
2023-05-05T02:03:11.367Z,28.98
2023-05-05T02:04:11.222Z,28.96
2023-05-05T02:05:11.261Z,28.97
2023-05-05T02:06:11.278Z,29.02
2023-05-05T02:07:11.303Z,28.97
2023-05-05T02:08:11.566Z,29.01
2023-05-05T02:09:11.328Z,29.00
2023-05-05T02:10:11.422Z,28.95
2023-05-05T02:11:11.320Z,28.95
2023-05-05T02:12:11.415Z,28.98
2023-05-05T02:13:11.513Z,28.97
2023-05-05T02:14:11.392Z,28.97
2023-05-05T02:15:11.421Z,28.98
2023-05-05T02:16:11.470Z,29.01
2023-05-05T02:17:11.407Z,29.02
2023-05-05T02:18:11.480Z,28.96
2023-05-05T02:19:11.460Z,28.97
2023-05-05T02:20:11.506Z,28.96
2023-05-05T02:21:11.512Z,28.98
2023-05-05T02:22:11.520Z,28.98
2023-05-05T02:23:11.534Z,28.98
2023-05-05T02:24:11.567Z,28.99
2023-05-05T02:25:11.592Z,29.05
2023-05-05T02:26:11.616Z,29.03
2023-05-05T02:27:11.580Z,29.02
2023-05-05T02:28:12.097Z,29.03
2023-05-05T02:29:11.635Z,28.98
2023-05-05T02:30:11.662Z,28.99
2023-05-05T02:31:11.699Z,29.03
2023-05-05T02:32:11.656Z,29.02
2023-05-05T02:33:11.704Z,29.02
2023-05-05T02:34:11.732Z,28.98
2023-05-05T02:35:11.728Z,29.05
2023-05-05T02:36:11.717Z,29.03
2023-05-05T02:37:11.729Z,29.03
2023-05-05T02:38:11.757Z,29.06
2023-05-05T02:39:11.775Z,29.06
2023-05-05T02:40:11.781Z,29.07
2023-05-05T02:41:11.793Z,29.03
2023-05-05T02:42:11.802Z,29.05
2023-05-05T02:43:11.844Z,28.99
2023-05-05T02:44:11.816Z,29.05
2023-05-05T02:45:11.869Z,29.07
2023-05-05T02:46:11.893Z,29.06
2023-05-05T02:47:11.859Z,29.02
2023-05-05T02:48:11.916Z,29.05
2023-05-05T02:49:11.919Z,29.06
2023-05-05T02:50:11.922Z,29.07
2023-05-05T02:51:11.950Z,29.06
2023-05-05T02:52:11.930Z,29.09
2023-05-05T02:53:11.992Z,29.07
2023-05-05T02:54:11.978Z,29.03
2023-05-05T02:55:11.992Z,29.05
2023-05-05T02:56:12.034Z,29.06
2023-05-05T02:57:12.040Z,29.11
2023-05-05T02:58:12.047Z,29.06
2023-05-05T02:59:13.850Z,29.11
2023-05-05T03:00:12.063Z,29.05
2023-05-05T03:01:12.129Z,29.07
2023-05-05T03:02:12.050Z,29.05
2023-05-05T03:03:12.104Z,29.07
2023-05-05T03:04:12.010Z,29.10
2023-05-05T03:05:12.060Z,29.07
2023-05-05T03:06:11.992Z,29.10
2023-05-05T03:07:12.008Z,29.06
2023-05-05T03:08:11.986Z,29.07
2023-05-05T03:09:11.966Z,29.10
2023-05-05T03:10:11.982Z,29.06
2023-05-05T03:11:11.946Z,29.06
2023-05-05T03:12:11.976Z,29.12
2023-05-05T03:13:12.005Z,29.10
2023-05-05T03:14:11.952Z,29.06
2023-05-05T03:15:11.920Z,29.10
2023-05-05T03:16:11.967Z,29.07
2023-05-05T03:17:11.974Z,29.11
2023-05-05T03:18:11.932Z,29.10
2023-05-05T03:19:11.921Z,29.07
2023-05-05T03:20:11.935Z,29.14
2023-05-05T03:21:11.910Z,29.16
2023-05-05T03:22:11.900Z,29.12
2023-05-05T03:23:11.866Z,29.10
2023-05-05T03:24:11.894Z,29.15
2023-05-05T03:25:11.876Z,29.10
2023-05-05T03:26:11.874Z,29.10
2023-05-05T03:27:11.870Z,29.08
2023-05-05T03:28:11.880Z,29.15
2023-05-05T03:29:11.864Z,29.11
2023-05-05T03:30:11.866Z,29.10
2023-05-05T03:31:11.829Z,29.10
2023-05-05T03:32:11.846Z,29.16
2023-05-05T03:33:11.834Z,29.15
2023-05-05T03:34:11.829Z,29.12
2023-05-05T03:35:11.792Z,29.13
2023-05-05T03:36:11.841Z,29.17
2023-05-05T03:37:11.804Z,29.10
2023-05-05T03:38:11.785Z,29.17
2023-05-05T03:39:11.788Z,29.15
2023-05-05T03:40:11.779Z,29.15
2023-05-05T03:41:11.747Z,29.15
2023-05-05T03:42:11.821Z,29.16
2023-05-05T03:43:11.770Z,29.12
2023-05-05T03:44:11.815Z,29.13
2023-05-05T03:45:11.756Z,29.15
2023-05-05T03:46:11.796Z,29.16
2023-05-05T03:47:11.734Z,29.17
2023-05-05T03:48:11.742Z,29.15
2023-05-05T03:49:11.709Z,29.13
2023-05-05T03:50:11.688Z,29.16
2023-05-05T03:51:11.704Z,29.16
2023-05-05T03:52:12.648Z,29.12
2023-05-05T03:53:11.678Z,29.17
2023-05-05T03:54:11.698Z,29.17
2023-05-05T03:55:11.680Z,29.15
2023-05-05T03:56:11.665Z,29.16
2023-05-05T03:57:11.705Z,29.15
2023-05-05T03:58:11.659Z,29.13
2023-05-05T03:59:11.657Z,29.19
2023-05-05T04:00:11.663Z,29.15
2023-05-05T04:01:11.666Z,29.14
2023-05-05T04:02:11.690Z,29.19
2023-05-05T04:03:11.741Z,29.23
2023-05-05T04:04:11.670Z,29.20
2023-05-05T04:05:11.635Z,29.15
2023-05-05T04:06:11.603Z,29.20
2023-05-05T04:07:11.570Z,29.17
2023-05-05T04:08:11.627Z,29.18
2023-05-05T04:09:11.579Z,29.18
2023-05-05T04:10:11.571Z,29.20
2023-05-05T04:11:11.568Z,29.17
2023-05-05T04:12:11.562Z,29.17
2023-05-05T04:13:11.640Z,29.19
2023-05-05T04:14:11.564Z,29.23
2023-05-05T04:15:11.537Z,29.21
2023-05-05T04:16:11.584Z,29.17
2023-05-05T04:17:11.518Z,29.21
2023-05-05T04:18:11.603Z,29.21
2023-05-05T04:19:11.516Z,29.24
2023-05-05T04:20:11.498Z,29.23
2023-05-05T04:21:11.512Z,29.18
2023-05-05T04:22:11.475Z,29.18
2023-05-05T04:23:11.476Z,29.19
2023-05-05T04:24:11.497Z,29.20
2023-05-05T04:25:11.488Z,29.23
2023-05-05T04:26:11.470Z,29.20
2023-05-05T04:27:11.443Z,29.20
2023-05-05T04:28:11.458Z,29.23
2023-05-05T04:29:11.404Z,29.19
2023-05-05T04:30:11.447Z,29.20
2023-05-05T04:31:11.444Z,29.16
2023-05-05T04:32:11.422Z,29.23
2023-05-05T04:33:11.422Z,29.20
2023-05-05T04:34:11.392Z,29.27
2023-05-05T04:35:11.386Z,29.18
2023-05-05T04:36:11.402Z,29.23
2023-05-05T04:37:11.379Z,29.20
2023-05-05T04:38:11.385Z,29.24
2023-05-05T04:39:11.369Z,29.20
2023-05-05T04:40:11.361Z,29.23
2023-05-05T04:41:11.350Z,29.20
2023-05-05T04:42:11.333Z,29.24
2023-05-05T04:43:11.366Z,29.24
2023-05-05T04:44:11.321Z,29.25
2023-05-05T04:45:11.333Z,29.21
2023-05-05T04:46:11.363Z,29.24
2023-05-05T04:47:12.601Z,29.24
2023-05-05T04:48:11.302Z,29.21
2023-05-05T04:49:11.295Z,29.17
2023-05-05T04:50:11.376Z,29.24
2023-05-05T04:51:11.315Z,29.27
2023-05-05T04:52:11.254Z,29.24
2023-05-05T04:53:11.283Z,29.24
2023-05-05T04:54:11.272Z,29.23
2023-05-05T04:55:11.265Z,29.25
2023-05-05T04:56:11.235Z,29.18
2023-05-05T04:57:11.251Z,29.21
2023-05-05T04:58:11.243Z,29.25
2023-05-05T04:59:11.204Z,29.29
2023-05-05T05:00:11.320Z,29.21
2023-05-05T05:01:11.224Z,29.24
2023-05-05T05:02:11.233Z,29.25
2023-05-05T05:03:11.292Z,29.24
2023-05-05T05:04:11.190Z,29.24
2023-05-05T05:05:11.241Z,29.28
2023-05-05T05:06:11.175Z,29.22
2023-05-05T05:07:11.190Z,29.24
2023-05-05T05:08:11.146Z,29.25
2023-05-05T05:09:11.154Z,29.25
2023-05-05T05:10:11.295Z,29.26
2023-05-05T05:11:11.123Z,29.22
2023-05-05T05:12:11.160Z,29.24
2023-05-05T05:13:12.791Z,29.24
2023-05-05T05:14:11.122Z,29.29
2023-05-05T05:15:11.163Z,29.28
2023-05-05T05:16:11.135Z,29.25
2023-05-05T05:17:11.113Z,29.25
2023-05-05T05:18:11.092Z,29.25
2023-05-05T05:19:11.098Z,29.24
2023-05-05T05:20:11.363Z,29.21
2023-05-05T05:21:11.091Z,29.23
2023-05-05T05:22:11.092Z,29.21
2023-05-05T05:23:11.042Z,29.24
2023-05-05T05:24:11.065Z,29.24
2023-05-05T05:25:11.047Z,29.25
2023-05-05T05:26:11.048Z,29.23
2023-05-05T05:27:11.024Z,29.27
2023-05-05T05:28:11.187Z,29.28
2023-05-05T05:29:11.038Z,29.25
2023-05-05T05:30:11.067Z,29.28
2023-05-05T05:31:11.099Z,29.29
2023-05-05T05:32:11.139Z,29.24
2023-05-05T05:33:11.184Z,29.23
2023-05-05T05:34:12.810Z,29.23
2023-05-05T05:35:11.156Z,29.19
2023-05-05T05:36:11.188Z,29.24
2023-05-05T05:37:11.217Z,29.23
2023-05-05T05:38:11.769Z,29.20
2023-05-05T05:39:11.254Z,29.19
2023-05-05T05:40:11.311Z,29.20
2023-05-05T05:41:11.317Z,29.16
2023-05-05T05:42:11.299Z,29.22
2023-05-05T05:43:11.365Z,29.20
2023-05-05T05:44:11.359Z,29.14
2023-05-05T05:45:11.427Z,29.19
2023-05-05T05:46:11.404Z,29.19
2023-05-05T05:47:11.419Z,29.18
2023-05-05T05:48:11.515Z,29.47
2023-05-05T05:49:11.460Z,29.41
2023-05-05T05:50:11.576Z,29.67
2023-05-05T05:51:11.473Z,30.45
2023-05-05T05:52:11.540Z,30.78
2023-05-05T05:53:11.533Z,30.89
2023-05-05T05:54:11.549Z,31.10
2023-05-05T05:55:11.541Z,31.48
2023-05-05T05:56:11.550Z,31.65
2023-05-05T05:57:11.530Z,32.09
2023-05-05T05:58:11.526Z,32.51
2023-05-05T05:59:11.590Z,32.58
2023-05-05T06:00:11.639Z,32.55
2023-05-05T06:01:11.693Z,31.97
2023-05-05T06:02:11.743Z,32.21
2023-05-05T06:03:11.854Z,32.29
2023-05-05T06:04:12.206Z,32.60
2023-05-05T06:05:11.911Z,32.71
2023-05-05T06:06:11.970Z,32.84
2023-05-05T06:07:11.985Z,33.13
2023-05-05T06:08:12.061Z,32.92
2023-05-05T06:09:12.187Z,33.24
2023-05-05T06:10:26.419Z,32.76
2023-05-05T06:11:13.149Z,32.51
2023-05-05T06:12:12.133Z,32.67
2023-05-05T06:13:12.173Z,32.91
2023-05-05T06:14:12.181Z,33.00
2023-05-05T06:15:12.094Z,33.19
2023-05-05T06:16:12.180Z,33.16
2023-05-05T06:17:12.079Z,33.30
2023-05-05T06:18:12.159Z,33.20
2023-05-05T06:19:12.200Z,33.23
2023-05-05T06:20:12.077Z,33.07
2023-05-05T06:21:12.060Z,33.21
2023-05-05T06:22:12.074Z,33.23
2023-05-05T06:23:12.053Z,33.10
2023-05-05T06:24:12.195Z,33.07
2023-05-05T06:25:12.063Z,33.24
2023-05-05T06:26:12.028Z,33.21
2023-05-05T06:27:12.019Z,33.19
2023-05-05T06:28:12.024Z,33.19
2023-05-05T06:29:12.416Z,32.90
2023-05-05T06:30:12.002Z,33.06
2023-05-05T06:31:11.995Z,33.02
2023-05-05T06:32:12.014Z,33.11
2023-05-05T06:33:11.959Z,33.16
2023-05-05T06:34:12.175Z,33.28
2023-05-05T06:35:11.959Z,33.36
2023-05-05T06:36:12.027Z,33.59
2023-05-05T06:37:11.962Z,33.60
2023-05-05T06:38:12.009Z,33.69
2023-05-05T06:39:13.540Z,33.18
2023-05-05T06:40:12.210Z,33.35
2023-05-05T06:41:12.283Z,33.32
2023-05-05T06:42:12.277Z,33.49
2023-05-05T06:43:12.357Z,33.39
2023-05-05T06:44:12.431Z,33.17
2023-05-05T06:45:12.474Z,33.35
2023-05-05T06:46:12.581Z,33.18
2023-05-05T06:47:12.589Z,33.19
2023-05-05T06:48:12.667Z,33.12
2023-05-05T06:49:12.713Z,32.93
2023-05-05T06:50:12.760Z,33.02
2023-05-05T06:51:12.819Z,33.17
2023-05-05T06:52:12.888Z,33.11
2023-05-05T06:53:12.941Z,32.96
2023-05-05T06:54:12.955Z,32.97
2023-05-05T06:55:13.010Z,33.03
2023-05-05T06:56:13.034Z,33.07
2023-05-05T06:57:13.105Z,32.98
2023-05-05T06:58:13.217Z,32.95
2023-05-05T06:59:13.218Z,32.90
2023-05-05T07:00:13.281Z,32.80
2023-05-05T07:01:13.431Z,32.74
2023-05-05T07:02:14.213Z,32.69
2023-05-05T07:03:13.552Z,32.73
2023-05-05T07:04:13.580Z,32.63
2023-05-05T07:05:13.522Z,32.66
2023-05-05T07:06:13.537Z,32.64
2023-05-05T07:07:13.586Z,32.64
2023-05-05T07:08:13.555Z,32.67
2023-05-05T07:09:14.721Z,32.57
2023-05-05T07:10:13.570Z,32.66
2023-05-05T07:11:13.572Z,32.63
2023-05-05T07:12:13.561Z,32.67
2023-05-05T07:13:13.654Z,32.60
2023-05-05T07:14:13.673Z,32.67
2023-05-05T07:15:26.564Z,32.64
2023-05-05T07:16:14.554Z,32.59
2023-05-05T07:17:13.548Z,32.64
2023-05-05T07:18:13.516Z,32.64
2023-05-05T07:19:13.550Z,32.59
2023-05-05T07:20:13.493Z,32.57
2023-05-05T07:21:13.500Z,32.52
2023-05-05T07:22:13.501Z,32.56
2023-05-05T07:23:13.487Z,32.53
2023-05-05T07:24:13.463Z,32.53
2023-05-05T07:25:13.506Z,32.48
2023-05-05T07:26:13.466Z,32.47
2023-05-05T07:27:13.488Z,32.45
2023-05-05T07:28:13.486Z,32.45
2023-05-05T07:29:13.757Z,32.49
2023-05-05T07:30:17.323Z,32.50
2023-05-05T07:31:14.446Z,32.46
2023-05-05T07:32:13.477Z,32.45
2023-05-05T07:33:13.456Z,32.39
2023-05-05T07:34:13.422Z,32.39
2023-05-05T07:35:13.449Z,32.34
2023-05-05T07:36:13.407Z,32.40
2023-05-05T07:37:13.420Z,32.29
2023-05-05T07:38:13.394Z,32.34
2023-05-05T07:39:15.323Z,32.33
2023-05-05T07:40:13.377Z,32.36
2023-05-05T07:41:13.366Z,32.32
2023-05-05T07:42:13.336Z,32.28
2023-05-05T07:43:13.358Z,32.34
2023-05-05T07:44:13.333Z,32.31
2023-05-05T07:45:13.343Z,32.85
2023-05-05T07:46:13.552Z,34.99
2023-05-05T07:47:13.368Z,34.97
2023-05-05T07:48:13.325Z,35.06
2023-05-05T07:49:13.311Z,35.88
2023-05-05T07:50:13.291Z,36.15
2023-05-05T07:51:13.317Z,36.85
2023-05-05T07:52:13.292Z,36.99
2023-05-05T07:53:15.087Z,36.80
2023-05-05T07:54:13.260Z,36.70
2023-05-05T07:55:13.369Z,36.38
2023-05-05T07:56:13.280Z,35.89
2023-05-05T07:57:13.257Z,34.55
2023-05-05T07:58:13.254Z,34.05
2023-05-05T07:59:13.732Z,33.76
2023-05-05T08:00:13.253Z,33.51
2023-05-05T08:01:13.245Z,33.30
2023-05-05T08:02:13.322Z,33.24
2023-05-05T08:03:13.285Z,33.03
2023-05-05T08:04:13.336Z,32.99
2023-05-05T08:05:13.243Z,32.89
2023-05-05T08:06:13.283Z,32.77
2023-05-05T08:07:13.261Z,32.72
2023-05-05T08:08:13.293Z,32.58
2023-05-05T08:09:13.296Z,32.55
2023-05-05T08:10:13.327Z,32.38
2023-05-05T08:11:13.337Z,32.40
2023-05-05T08:12:13.352Z,32.32
2023-05-05T08:13:13.486Z,32.23
2023-05-05T08:14:13.442Z,32.17
2023-05-05T08:15:13.452Z,32.09
2023-05-05T08:16:13.511Z,32.04
2023-05-05T08:17:13.533Z,32.05
2023-05-05T08:18:13.695Z,31.94
2023-05-05T08:19:27.551Z,31.89
2023-05-05T08:20:14.578Z,31.90
2023-05-05T08:21:13.559Z,31.86
2023-05-05T08:22:13.567Z,31.83
2023-05-05T08:23:13.606Z,31.82
2023-05-05T08:24:13.750Z,31.72
2023-05-05T08:25:13.529Z,31.75
2023-05-05T08:26:13.505Z,31.70
2023-05-05T08:27:13.494Z,31.67
2023-05-05T08:28:13.485Z,31.65
2023-05-05T08:29:13.742Z,31.72
2023-05-05T08:30:13.556Z,31.65
2023-05-05T08:31:13.541Z,31.65
2023-05-05T08:32:13.511Z,31.67
2023-05-05T08:33:13.538Z,31.64
2023-05-05T08:34:13.813Z,31.65
2023-05-05T08:35:13.762Z,31.60
2023-05-05T08:36:13.572Z,31.60
2023-05-05T08:37:13.646Z,31.59
2023-05-05T08:38:13.645Z,31.56
2023-05-05T08:39:13.764Z,31.52
2023-05-05T08:40:13.722Z,31.54
2023-05-05T08:41:13.788Z,31.40
2023-05-05T08:42:19.639Z,31.87
2023-05-05T08:43:14.798Z,32.26
2023-05-05T08:44:13.806Z,32.70
2023-05-05T08:45:13.791Z,32.76
2023-05-05T08:46:13.803Z,32.75
2023-05-05T08:47:13.795Z,32.95
2023-05-05T08:48:13.777Z,33.10
2023-05-05T08:49:13.738Z,33.57
2023-05-05T08:50:13.837Z,33.29
2023-05-05T08:51:13.755Z,33.36
2023-05-05T08:52:13.795Z,33.42
2023-05-05T08:53:13.760Z,33.37
2023-05-05T08:54:13.772Z,33.55
2023-05-05T08:55:13.729Z,33.64
2023-05-05T08:56:13.721Z,33.51
2023-05-05T08:57:13.698Z,33.43
2023-05-05T08:58:13.771Z,33.31
2023-05-05T08:59:13.792Z,33.19
2023-05-05T09:00:13.782Z,33.21
2023-05-05T09:01:13.883Z,33.08
2023-05-05T09:02:13.906Z,33.00
2023-05-05T09:03:13.834Z,33.02
2023-05-05T09:04:13.862Z,33.03
2023-05-05T09:05:13.869Z,33.11
2023-05-05T09:06:13.979Z,32.92
2023-05-05T09:07:13.930Z,32.90
2023-05-05T09:08:13.863Z,32.93
2023-05-05T09:09:13.868Z,32.97
2023-05-05T09:10:13.858Z,33.04
2023-05-05T09:11:13.846Z,32.92
2023-05-05T09:12:13.866Z,32.86
2023-05-05T09:13:13.988Z,32.93
2023-05-05T09:14:13.863Z,32.80
2023-05-05T09:15:13.868Z,32.83
2023-05-05T09:16:13.872Z,32.87
2023-05-05T09:17:13.827Z,32.89
2023-05-05T09:18:13.874Z,32.89
2023-05-05T09:19:14.304Z,32.86
2023-05-05T09:20:13.865Z,32.88
2023-05-05T09:21:13.860Z,32.88
2023-05-05T09:22:13.996Z,32.85
2023-05-05T09:23:13.874Z,32.87
2023-05-05T09:24:13.898Z,32.84
2023-05-05T09:25:13.889Z,32.81
2023-05-05T09:26:13.896Z,32.83
2023-05-05T09:27:13.904Z,32.81
2023-05-05T09:28:13.920Z,32.78
2023-05-05T09:29:13.896Z,32.78
2023-05-05T09:30:13.933Z,32.80
2023-05-05T09:31:14.046Z,32.79
2023-05-05T09:32:13.921Z,32.84
2023-05-05T09:33:13.961Z,32.79
2023-05-05T09:34:13.924Z,32.76
2023-05-05T09:35:13.947Z,32.76
2023-05-05T09:36:13.961Z,32.75
2023-05-05T09:37:13.946Z,32.80
2023-05-05T09:38:13.962Z,32.76
2023-05-05T09:39:14.273Z,32.79
2023-05-05T09:40:13.933Z,32.77
2023-05-05T09:41:13.956Z,32.79
2023-05-05T09:42:13.947Z,32.74
2023-05-05T09:43:14.001Z,32.75
2023-05-05T09:44:14.003Z,32.73
2023-05-05T09:45:13.966Z,32.75
2023-05-05T09:46:14.056Z,32.75
2023-05-05T09:47:26.098Z,32.77
2023-05-05T09:48:15.022Z,32.98
2023-05-05T09:49:14.013Z,32.85
2023-05-05T09:50:14.026Z,33.35
2023-05-05T09:51:14.036Z,33.59
2023-05-05T09:52:13.969Z,33.72
2023-05-05T09:53:13.964Z,33.96
2023-05-05T09:54:14.142Z,34.25
2023-05-05T09:55:14.273Z,34.57
2023-05-05T09:56:13.950Z,34.71
2023-05-05T09:57:13.978Z,34.88
2023-05-05T09:58:13.943Z,35.14
2023-05-05T09:59:13.902Z,35.16
2023-05-05T10:00:13.927Z,35.28
2023-05-05T10:01:13.924Z,35.49
2023-05-05T10:02:13.923Z,35.51
2023-05-05T10:03:13.886Z,35.61
2023-05-05T10:04:13.909Z,35.58
2023-05-05T10:05:14.370Z,35.01
2023-05-05T10:06:14.056Z,35.15
2023-05-05T10:07:14.089Z,35.30
2023-05-05T10:08:14.142Z,35.26
2023-05-05T10:09:14.222Z,35.09
2023-05-05T10:10:14.370Z,35.13
2023-05-05T10:11:14.323Z,35.15
2023-05-05T10:12:14.395Z,34.92
2023-05-05T10:13:14.509Z,34.49
2023-05-05T10:14:14.482Z,34.19
2023-05-05T10:15:14.517Z,34.19
2023-05-05T10:16:14.631Z,34.09
2023-05-05T10:17:14.652Z,33.60
2023-05-05T10:18:14.722Z,31.59
2023-05-05T10:19:14.712Z,31.31
2023-05-05T10:20:14.772Z,31.78
2023-05-05T10:21:14.793Z,32.03
2023-05-05T10:22:14.881Z,32.13
2023-05-05T10:23:14.935Z,32.05
2023-05-05T10:24:14.966Z,32.14
2023-05-05T10:25:15.317Z,31.99
2023-05-05T10:26:15.119Z,32.09
2023-05-05T10:27:15.135Z,31.74
2023-05-05T10:28:15.159Z,31.18
2023-05-05T10:29:15.225Z,29.49
2023-05-05T10:30:15.313Z,30.43
2023-05-05T10:31:25.259Z,31.23
2023-05-05T10:32:40.628Z,31.01
2023-05-05T10:33:31.143Z,30.72
2023-05-05T10:34:16.357Z,30.96
2023-05-05T10:35:15.323Z,31.27
2023-05-05T10:36:15.253Z,30.93
2023-05-05T10:37:15.269Z,30.43
2023-05-05T10:38:15.249Z,30.27
2023-05-05T10:39:15.248Z,30.62
2023-05-05T10:40:15.329Z,30.97
2023-05-05T10:41:15.227Z,31.28
2023-05-05T10:42:15.734Z,31.02
2023-05-05T10:43:15.209Z,29.95
2023-05-05T10:44:15.398Z,30.06
2023-05-05T10:45:15.358Z,30.03
2023-05-05T10:46:15.290Z,29.15
2023-05-05T10:47:15.181Z,28.72
2023-05-05T10:48:15.228Z,28.46
2023-05-05T10:49:15.182Z,28.95
2023-05-05T10:50:15.394Z,28.61
2023-05-05T10:51:23.876Z,28.65
2023-05-05T10:52:16.164Z,28.63
2023-05-05T10:53:15.143Z,28.94
2023-05-05T10:54:15.226Z,29.06
2023-05-05T10:55:15.342Z,29.25
2023-05-05T10:56:15.118Z,29.26
2023-05-05T10:57:15.141Z,29.31
2023-05-05T10:58:15.193Z,29.33
2023-05-05T10:59:15.124Z,29.37
2023-05-05T11:00:15.357Z,29.41
2023-05-05T11:01:15.161Z,29.48
2023-05-05T11:02:15.148Z,29.59
2023-05-05T11:03:15.295Z,29.65
2023-05-05T11:04:15.251Z,29.70
2023-05-05T11:05:15.443Z,29.75
2023-05-05T11:06:15.339Z,29.83
2023-05-05T11:07:15.297Z,29.86
2023-05-05T11:08:15.307Z,29.88
2023-05-05T11:09:15.321Z,29.95
2023-05-05T11:10:15.989Z,29.99
2023-05-05T11:11:15.330Z,30.08
2023-05-05T11:12:15.343Z,30.11
2023-05-05T11:13:15.400Z,30.14
2023-05-05T11:14:15.310Z,30.19
2023-05-05T11:15:15.814Z,30.27
2023-05-05T11:16:15.351Z,30.26
2023-05-05T11:17:15.339Z,30.33
2023-05-05T11:18:15.381Z,30.40
2023-05-05T11:19:15.361Z,30.36
2023-05-05T11:20:15.813Z,30.41
2023-05-05T11:21:15.501Z,30.43
2023-05-05T11:22:16.350Z,30.49
2023-05-05T11:23:16.698Z,30.48
2023-05-05T11:24:15.349Z,30.54
2023-05-05T11:25:15.848Z,30.59
2023-05-05T11:26:15.385Z,30.57
2023-05-05T11:27:15.357Z,30.60
2023-05-05T11:28:15.323Z,30.58
2023-05-05T11:29:15.327Z,30.65
2023-05-05T11:30:15.399Z,30.72
2023-05-05T11:31:15.367Z,30.65
2023-05-05T11:32:15.294Z,30.72
2023-05-05T11:33:15.282Z,30.74
2023-05-05T11:34:15.300Z,30.67
2023-05-05T11:35:15.333Z,30.73
2023-05-05T11:36:15.269Z,30.78
2023-05-05T11:37:15.293Z,30.79
2023-05-05T11:38:15.249Z,30.79
2023-05-05T11:39:15.257Z,30.88
2023-05-05T11:40:15.320Z,30.85
2023-05-05T11:41:15.306Z,30.89
2023-05-05T11:42:15.359Z,30.92
2023-05-05T11:43:15.429Z,30.93
2023-05-05T11:44:15.428Z,30.92
2023-05-05T11:45:15.849Z,30.96
2023-05-05T11:46:15.548Z,30.91
2023-05-05T11:47:15.528Z,30.94
2023-05-05T11:48:15.685Z,30.96
2023-05-05T11:49:15.653Z,31.02
2023-05-05T11:50:15.676Z,30.99
2023-05-05T11:51:15.692Z,31.04
2023-05-05T11:52:15.759Z,31.03
2023-05-05T11:53:15.790Z,31.05
2023-05-05T11:54:15.897Z,31.08
2023-05-05T11:55:16.369Z,31.02
2023-05-05T11:56:15.921Z,31.08
2023-05-05T11:57:15.956Z,31.05
2023-05-05T11:58:16.034Z,31.08
2023-05-05T11:59:16.088Z,31.07
2023-05-05T12:00:16.121Z,31.08
2023-05-05T12:01:16.166Z,31.07
2023-05-05T12:02:16.298Z,31.09
2023-05-05T12:03:16.301Z,31.12
2023-05-05T12:04:16.420Z,31.13
2023-05-05T12:05:16.856Z,31.13
2023-05-05T12:06:16.368Z,31.13
2023-05-05T12:07:16.444Z,31.10
2023-05-05T12:08:16.520Z,31.14
2023-05-05T12:09:16.616Z,31.14
2023-05-05T12:10:16.844Z,31.18
2023-05-05T12:11:16.666Z,31.14
2023-05-05T12:12:16.748Z,31.17
2023-05-05T12:13:16.817Z,31.16
2023-05-05T12:14:16.884Z,31.18
2023-05-05T12:15:17.334Z,31.19
2023-05-05T12:16:17.024Z,31.20
2023-05-05T12:17:17.009Z,31.22
2023-05-05T12:18:17.168Z,31.22
2023-05-05T12:19:17.160Z,31.21
2023-05-05T12:20:17.245Z,31.23
2023-05-05T12:21:17.318Z,31.21
2023-05-05T12:22:17.387Z,31.25
2023-05-05T12:23:17.388Z,31.23
2023-05-05T12:24:17.492Z,31.29
2023-05-05T12:25:17.557Z,31.26
2023-05-05T12:26:17.604Z,31.22
2023-05-05T12:27:17.699Z,31.25
2023-05-05T12:28:17.738Z,31.29
2023-05-05T12:29:17.810Z,31.21
2023-05-05T12:30:17.989Z,31.25
2023-05-05T12:31:17.949Z,31.23
2023-05-05T12:32:17.953Z,31.29
2023-05-05T12:33:18.031Z,31.26
2023-05-05T12:34:18.104Z,31.28
2023-05-05T12:35:18.348Z,31.30
2023-05-05T12:36:18.155Z,31.30
2023-05-05T12:37:18.237Z,31.28
2023-05-05T12:38:18.238Z,31.27
2023-05-05T12:39:18.291Z,31.28
2023-05-05T12:40:18.383Z,31.29
2023-05-05T12:41:18.355Z,31.34
2023-05-05T12:42:18.399Z,31.28
2023-05-05T12:43:18.425Z,31.27
2023-05-05T12:44:18.453Z,31.33
2023-05-05T12:45:18.872Z,31.36
2023-05-05T12:46:18.553Z,31.31
2023-05-05T12:47:18.513Z,31.32
2023-05-05T12:48:18.487Z,31.31
2023-05-05T12:49:18.530Z,31.29
2023-05-05T12:50:18.538Z,31.32
2023-05-05T12:51:18.582Z,31.34
2023-05-05T12:52:18.569Z,31.32